Kansas City, KS

8:11 AM CDT on August 30, 2015 (GMT -0500)
Westheight | | Change Station
CLOSE
Current Station
Personal Weather Station
Location: Kansas City, KS
Elevation: 893 ft
Nearby Weather Stations

Elev 893 ft 39.12 °N, 94.65 °W | Updated 3 minutes ago

Fog
Fog
67.8 °F
Feels Like 67.8 °F
N
0.0
Wind Variable Wind from North
Gusts 0.0 mph

Today
High -- | Low -- °F
--% Chance of Precip.
Yesterday
High -- | Low -- °F
Precip. -- in
6:45 AM 7:52 PM
Full, 99% visible
Pressure 30.01 in
Visibility 0.5 miles
Clouds Overcast 200 ft
Dew Point 62 °F
Humidity 83%
Rainfall 0.00 in
Snow Depth Not available.
UV 0 out of 12
Pollen 9.60 out of 12
Air Quality Not available.
Flu Activity Not available.
METAR KMKC 301254Z AUTO 06004KT 1/2SM FG OVC002 20/19 A3003 RMK AO2 SLP162 T02000194
Pressure 30.01 in
Visibility 0.5 miles
Clouds Overcast 200 ft
Dew Point 62 °F
Humidity 83%
Rainfall 0.00 in
Snow Depth Not available.
UV 0 out of 12
Pollen 9.60 out of 12
Air Quality Not available.
Flu Activity Not available.
METAR KMKC 301254Z AUTO 06004KT 1/2SM FG OVC002 20/19 A3003 RMK AO2 SLP162 T02000194

10-Day Weather Forecast

×

Almanac

Astronomy

Aug. 30, 2015 Rise Set
Actual Time
Civil Twilight
Nautical Twilight
Astronomical Twilight
Moon
Length of Visible Light
Length of Day
Tomorrow will be .
, % of the Moon is Illuminated

Today's Extremes

State Highs State Lows

Community

WunderPhotos

Upload Photos

1,850,946 photos uploaded!

WunderBlogs® & News

Nearby

Air Quality

  Air Quality AQ Index Pollutant
Not available.

Snow Depth

Station Depth Elevation

Earthquake Activity

City Distance Mag. Time & Date
Minimum magnitude displayed is 2.5.

Coastal Water Temperatures

Place Temperature

Stations

Nearby Weather Stations

Station Location Temp. Windchill Dew Point Humidity Wind Precip. Elev Updated Type